createdAt,value
2024-03-10T00:00:22.176Z,15.50
2024-03-10T00:03:11.055Z,15.00
2024-03-10T00:05:41.877Z,14.20
2024-03-10T00:08:09.725Z,13.20
2024-03-10T00:10:42.804Z,11.80
2024-03-10T00:13:10.874Z,13.10
2024-03-10T00:15:39.030Z,10.80
2024-03-10T00:18:07.589Z,13.30
2024-03-10T00:20:35.708Z,14.70
2024-03-10T00:23:05.001Z,14.40
2024-03-10T00:25:32.856Z,13.30
2024-03-10T00:28:00.619Z,14.80
2024-03-10T00:30:29.461Z,13.20
2024-03-10T00:32:57.467Z,15.60
2024-03-10T00:35:25.309Z,16.40
2024-03-10T00:37:53.917Z,14.80
2024-03-10T00:40:21.745Z,14.50
2024-03-10T00:42:49.473Z,13.50
2024-03-10T00:45:17.332Z,15.70
2024-03-10T00:47:46.513Z,16.80
2024-03-10T00:50:15.877Z,12.50
2024-03-10T00:52:43.926Z,16.40
2024-03-10T00:55:12.073Z,14.80
2024-03-10T00:57:40.034Z,14.70
2024-03-10T01:00:11.715Z,17.40
2024-03-10T01:02:39.983Z,13.40
2024-03-10T01:05:08.958Z,16.80
2024-03-10T01:07:36.877Z,14.50
2024-03-10T01:10:05.059Z,14.50
2024-03-10T01:12:32.835Z,17.90
2024-03-10T01:15:00.595Z,17.60
2024-03-10T01:17:28.756Z,19.90
2024-03-10T01:19:58.169Z,19.30
2024-03-10T01:22:26.088Z,17.60
2024-03-10T01:24:55.401Z,18.60
2024-03-10T01:27:23.185Z,18.50
2024-03-10T01:29:52.232Z,18.40
2024-03-10T01:32:20.136Z,18.80
2024-03-10T01:34:48.029Z,19.50
2024-03-10T01:37:16.862Z,20.60
2024-03-10T01:39:44.681Z,18.60
2024-03-10T01:42:12.569Z,20.10
2024-03-10T01:44:40.474Z,19.00
2024-03-10T01:47:09.120Z,17.30
2024-03-10T01:49:38.012Z,17.10
2024-03-10T01:52:07.966Z,16.70
2024-03-10T01:54:36.883Z,16.60
2024-03-10T01:57:06.252Z,21.10
2024-03-10T01:59:35.228Z,15.00
2024-03-10T02:02:06.263Z,16.40
2024-03-10T02:04:34.320Z,15.20
2024-03-10T02:07:03.054Z,17.60
2024-03-10T02:09:32.097Z,16.40
2024-03-10T02:12:00.354Z,16.40
2024-03-10T02:14:28.192Z,14.40
2024-03-10T02:16:55.972Z,12.90
2024-03-10T02:19:23.763Z,16.60
2024-03-10T02:21:51.501Z,15.50
2024-03-10T02:24:25.541Z,15.20
2024-03-10T02:26:53.331Z,13.70
2024-03-10T02:29:22.634Z,13.80
2024-03-10T02:32:10.273Z,14.70
2024-03-10T02:34:57.939Z,15.10
2024-03-10T02:37:44.574Z,14.20
2024-03-10T02:40:31.271Z,13.20
2024-03-10T02:43:17.968Z,15.60
2024-03-10T02:46:04.229Z,13.90
2024-03-10T02:48:33.104Z,11.60
2024-03-10T02:51:00.927Z,14.30
2024-03-10T02:53:28.761Z,13.80
2024-03-10T02:55:56.905Z,14.50
2024-03-10T02:58:24.628Z,15.80
2024-03-10T03:00:52.388Z,15.90
2024-03-10T03:03:20.189Z,14.40
2024-03-10T03:05:49.131Z,11.30
2024-03-10T03:08:17.805Z,14.70
2024-03-10T03:10:46.151Z,12.50
2024-03-10T03:13:13.985Z,15.30
2024-03-10T03:15:41.718Z,11.10
2024-03-10T03:18:09.686Z,11.30
2024-03-10T03:20:37.545Z,14.30
2024-03-10T03:23:05.606Z,14.60
2024-03-10T03:25:34.045Z,13.20
2024-03-10T03:28:02.083Z,15.20
2024-03-10T03:30:31.543Z,15.90
2024-03-10T03:32:59.463Z,16.10
2024-03-10T03:35:27.442Z,15.10
2024-03-10T03:37:55.394Z,13.40
2024-03-10T03:40:24.524Z,14.50
2024-03-10T03:42:52.431Z,13.80
2024-03-10T03:45:20.292Z,13.70
2024-03-10T03:47:48.090Z,14.70
2024-03-10T03:50:16.683Z,14.70
2024-03-10T03:52:44.631Z,12.70
2024-03-10T03:55:12.539Z,11.60
2024-03-10T03:57:40.305Z,13.90
2024-03-10T04:00:13.462Z,10.80
2024-03-10T04:02:41.457Z,13.90
2024-03-10T04:05:09.810Z,12.60
2024-03-10T04:07:37.606Z,13.60
2024-03-10T04:10:07.340Z,8.80
2024-03-10T04:15:03.798Z,14.20
2024-03-10T04:17:33.261Z,12.20
2024-03-10T04:20:01.506Z,13.40
2024-03-10T04:22:29.513Z,12.60
2024-03-10T04:24:57.370Z,15.10
2024-03-10T04:27:25.351Z,11.60
2024-03-10T04:29:53.158Z,11.90
2024-03-10T04:32:20.953Z,14.30
2024-03-10T04:34:48.786Z,14.10
2024-03-10T04:37:16.600Z,13.70
2024-03-10T04:39:44.300Z,12.50
2024-03-10T04:42:11.964Z,12.50
2024-03-10T04:44:39.714Z,13.10
2024-03-10T04:47:07.573Z,18.50
2024-03-10T04:49:35.355Z,13.90
2024-03-10T04:52:03.423Z,9.90
2024-03-10T04:54:32.220Z,14.70
2024-03-10T04:57:00.863Z,14.10
2024-03-10T04:59:28.951Z,15.20
2024-03-10T05:01:58.095Z,19.00
2024-03-10T05:04:25.916Z,12.70
2024-03-10T05:06:53.658Z,17.90
2024-03-10T05:09:21.627Z,14.20
2024-03-10T05:11:49.553Z,15.40
2024-03-10T05:14:17.539Z,12.90
2024-03-10T05:16:45.421Z,13.30
2024-03-10T05:19:13.247Z,14.80
2024-03-10T05:21:46.579Z,14.50
2024-03-10T05:24:14.800Z,15.00
2024-03-10T05:26:42.598Z,14.40
2024-03-10T05:29:10.537Z,12.70
2024-03-10T05:31:38.518Z,13.90
2024-03-10T05:34:06.586Z,12.80
2024-03-10T05:36:35.098Z,13.40
2024-03-10T05:39:03.535Z,10.40
2024-03-10T05:41:31.521Z,14.90
2024-03-10T05:44:01.042Z,11.00
2024-03-10T05:46:28.881Z,13.10
2024-03-10T05:48:57.358Z,11.50
2024-03-10T05:51:25.805Z,16.10
2024-03-10T05:53:56.426Z,13.80
2024-03-10T05:56:24.430Z,16.10
2024-03-10T05:58:52.409Z,11.70
2024-03-10T06:01:25.365Z,14.50
2024-03-10T06:03:53.776Z,13.90
2024-03-10T06:06:24.808Z,13.60
2024-03-10T06:08:55.528Z,11.20
2024-03-10T06:11:24.634Z,14.00
2024-03-10T06:13:55.531Z,14.00
2024-03-10T06:16:25.709Z,14.70
2024-03-10T06:18:57.367Z,12.30
2024-03-10T06:21:48.733Z,11.90
2024-03-10T06:24:35.263Z,14.00
2024-03-10T06:27:03.726Z,12.50
2024-03-10T06:29:33.351Z,14.90
2024-03-10T06:32:01.653Z,11.30
2024-03-10T06:34:29.620Z,13.50
2024-03-10T06:37:01.808Z,12.20
2024-03-10T06:39:29.605Z,12.30
2024-03-10T06:42:01.545Z,9.10
2024-03-10T06:44:29.409Z,13.20
2024-03-10T06:46:57.279Z,14.60
2024-03-10T06:49:25.074Z,13.30
2024-03-10T06:51:58.425Z,13.90
2024-03-10T06:54:26.178Z,16.50
2024-03-10T06:56:56.126Z,13.30
2024-03-10T06:59:24.332Z,13.50
2024-03-10T07:01:56.872Z,14.00
2024-03-10T07:04:25.270Z,14.10
2024-03-10T07:06:56.504Z,12.80
2024-03-10T07:09:24.456Z,12.70
2024-03-10T07:11:55.499Z,16.10
2024-03-10T07:14:23.577Z,22.00
2024-03-10T07:16:55.538Z,15.30
2024-03-10T07:19:23.266Z,17.80
2024-03-10T07:21:54.331Z,14.90
2024-03-10T07:24:22.053Z,11.30
2024-03-10T07:26:52.140Z,13.00
2024-03-10T07:29:20.090Z,16.60
2024-03-10T07:31:48.430Z,12.80
2024-03-10T07:34:21.771Z,13.50
2024-03-10T07:36:52.129Z,13.00
2024-03-10T07:39:19.920Z,14.00
2024-03-10T07:41:47.752Z,13.10
2024-03-10T07:44:17.296Z,13.50
2024-03-10T07:46:45.247Z,14.60
2024-03-10T07:49:13.315Z,12.20
2024-03-10T07:51:41.082Z,10.30
2024-03-10T07:54:09.482Z,12.60
2024-03-10T07:56:37.436Z,10.50
2024-03-10T07:59:05.326Z,10.70
2024-03-10T08:01:33.154Z,10.40
2024-03-10T08:04:01.364Z,10.50
2024-03-10T08:06:29.309Z,9.40
2024-03-10T08:08:57.459Z,9.90
2024-03-10T08:11:25.367Z,7.90
2024-03-10T08:13:53.314Z,9.40
2024-03-10T08:16:21.254Z,9.00
2024-03-10T08:18:51.021Z,8.10
2024-03-10T08:21:20.037Z,9.80
2024-03-10T08:23:47.798Z,9.40
2024-03-10T08:26:15.779Z,10.50
2024-03-10T08:28:44.064Z,8.30
2024-03-10T08:31:14.032Z,7.90
2024-03-10T08:33:41.864Z,9.70
2024-03-10T08:36:10.445Z,8.30
2024-03-10T08:38:38.527Z,8.30
2024-03-10T08:41:06.501Z,8.10
2024-03-10T08:43:36.176Z,9.40
2024-03-10T08:46:04.505Z,9.20
2024-03-10T08:48:32.368Z,9.10
2024-03-10T08:51:00.151Z,7.20
2024-03-10T08:53:28.502Z,8.50
2024-03-10T08:55:56.955Z,9.50
2024-03-10T08:58:25.865Z,8.40
2024-03-10T09:00:53.781Z,8.00
2024-03-10T09:03:23.723Z,9.10
2024-03-10T09:05:52.278Z,9.70
2024-03-10T09:08:20.431Z,8.50
2024-03-10T09:10:53.769Z,8.90
2024-03-10T09:13:30.704Z,8.60
2024-03-10T09:15:58.869Z,8.30
2024-03-10T09:18:27.275Z,8.40
2024-03-10T09:20:57.593Z,6.40
2024-03-10T09:23:26.615Z,8.30
2024-03-10T09:25:55.985Z,7.80
2024-03-10T09:28:25.315Z,6.90
2024-03-10T09:30:53.095Z,7.90
2024-03-10T09:33:23.651Z,8.20
2024-03-10T09:35:55.363Z,7.10
2024-03-10T09:38:23.829Z,7.30
2024-03-10T09:40:52.628Z,7.00
2024-03-10T09:43:22.619Z,8.00
2024-03-10T09:45:53.417Z,7.40
2024-03-10T09:48:23.588Z,7.10
2024-03-10T09:50:53.285Z,7.20
2024-03-10T09:53:21.319Z,6.70
2024-03-10T09:55:50.008Z,8.10
2024-03-10T09:58:29.757Z,5.50
2024-03-10T10:01:13.455Z,7.00
2024-03-10T10:03:51.581Z,7.60
2024-03-10T10:06:21.940Z,7.60
2024-03-10T10:08:56.121Z,6.90
2024-03-10T10:11:27.191Z,7.00
2024-03-10T10:14:11.054Z,6.30
2024-03-10T10:16:49.130Z,6.70
2024-03-10T10:19:18.216Z,6.40
2024-03-10T10:21:46.277Z,7.60
2024-03-10T10:24:15.276Z,6.40
2024-03-10T10:26:43.337Z,7.00
2024-03-10T10:29:12.095Z,5.80
2024-03-10T10:31:40.051Z,7.30
2024-03-10T10:34:15.703Z,7.30
2024-03-10T10:36:45.004Z,6.50
2024-03-10T10:39:17.813Z,6.70
2024-03-10T10:41:47.016Z,4.20
2024-03-10T10:44:16.302Z,6.30
2024-03-10T10:46:45.781Z,6.30
2024-03-10T10:51:45.966Z,6.30
2024-03-10T10:54:14.184Z,6.00
2024-03-10T10:56:42.229Z,6.90
2024-03-10T10:59:14.182Z,6.40
2024-03-10T11:01:46.629Z,7.60
2024-03-10T11:04:15.067Z,7.20
2024-03-10T11:06:43.821Z,7.10
2024-03-10T11:09:16.136Z,6.90
2024-03-10T11:11:47.528Z,6.00
2024-03-10T11:14:18.215Z,7.20
2024-03-10T11:16:46.450Z,5.90
2024-03-10T11:19:19.663Z,6.50
2024-03-10T11:21:51.598Z,6.10
2024-03-10T11:24:22.637Z,5.70
2024-03-10T11:27:11.578Z,6.20
2024-03-10T11:29:41.058Z,5.50
2024-03-10T11:32:34.766Z,5.10
2024-03-10T11:35:15.192Z,6.50
2024-03-10T11:37:44.336Z,5.70
2024-03-10T11:40:17.190Z,6.90
2024-03-10T11:42:46.512Z,5.60
2024-03-10T11:45:15.812Z,5.40
2024-03-10T11:47:59.272Z,6.40
2024-03-10T11:50:27.534Z,6.40
2024-03-10T11:52:55.404Z,5.90
2024-03-10T11:55:24.397Z,5.10
2024-03-10T11:57:55.385Z,5.40
2024-03-10T12:00:27.506Z,6.40
2024-03-10T12:02:56.509Z,6.00
2024-03-10T12:05:24.627Z,6.20
2024-03-10T12:07:59.299Z,6.90
2024-03-10T12:10:29.267Z,6.10
2024-03-10T12:12:59.123Z,5.00
2024-03-10T12:15:28.008Z,4.90
2024-03-10T12:17:56.226Z,5.30
2024-03-10T12:20:25.066Z,6.30
2024-03-10T12:22:54.421Z,5.80
2024-03-10T12:25:22.453Z,5.00
2024-03-10T12:27:50.754Z,5.60
2024-03-10T12:30:20.768Z,6.10
2024-03-10T12:32:54.608Z,6.00
2024-03-10T12:35:23.231Z,4.90
2024-03-10T12:37:52.875Z,5.30
2024-03-10T12:40:22.218Z,5.90
2024-03-10T12:42:52.280Z,5.80
2024-03-10T12:45:20.747Z,4.60
2024-03-10T12:47:52.307Z,6.10
2024-03-10T12:50:21.337Z,5.60
2024-03-10T12:52:49.636Z,5.80
2024-03-10T12:55:19.999Z,4.80
2024-03-10T12:57:47.834Z,6.00
2024-03-10T13:00:30.529Z,5.10
2024-03-10T13:02:59.343Z,6.60
2024-03-10T13:05:29.228Z,5.60
2024-03-10T13:07:58.908Z,4.60
2024-03-10T13:12:55.069Z,5.20
2024-03-10T13:15:23.378Z,5.50
2024-03-10T13:17:51.668Z,5.30
2024-03-10T13:20:22.281Z,5.40
2024-03-10T13:22:50.534Z,5.10
2024-03-10T13:25:18.684Z,5.00
2024-03-10T13:27:46.561Z,4.60
2024-03-10T13:30:15.664Z,4.60
2024-03-10T13:32:43.893Z,5.50
2024-03-10T13:35:14.421Z,5.20
2024-03-10T13:37:42.671Z,4.90
2024-03-10T13:40:18.364Z,6.00
2024-03-10T13:42:47.427Z,5.10
2024-03-10T13:45:23.257Z,4.50
2024-03-10T13:48:00.304Z,5.10
2024-03-10T13:50:29.811Z,5.50
2024-03-10T13:52:57.909Z,5.40
2024-03-10T13:55:27.193Z,6.00
2024-03-10T14:00:26.462Z,4.70
2024-03-10T14:02:54.941Z,5.90
2024-03-10T14:05:25.736Z,4.50
2024-03-10T14:07:54.132Z,5.40
2024-03-10T14:10:22.236Z,4.70
2024-03-10T14:12:50.053Z,4.60
2024-03-10T14:15:21.797Z,5.30
2024-03-10T14:17:49.856Z,6.40
2024-03-10T14:20:27.260Z,6.10
2024-03-10T14:22:55.703Z,6.30
2024-03-10T14:25:23.937Z,5.30
2024-03-10T14:27:53.456Z,5.30
2024-03-10T14:30:28.088Z,5.40
2024-03-10T14:32:58.050Z,5.40
2024-03-10T14:35:27.588Z,5.20
2024-03-10T14:37:57.230Z,6.20
2024-03-10T14:40:25.689Z,5.30
2024-03-10T14:42:56.338Z,5.20
2024-03-10T14:45:24.948Z,5.50
2024-03-10T14:47:53.905Z,4.60
2024-03-10T14:50:26.997Z,5.50
2024-03-10T14:52:56.477Z,5.90
2024-03-10T14:55:25.839Z,6.10
2024-03-10T14:57:54.654Z,5.20
2024-03-10T15:00:41.101Z,5.00
2024-03-10T15:03:16.669Z,5.60
2024-03-10T15:05:46.741Z,4.80
2024-03-10T15:08:18.028Z,3.90
2024-03-10T15:10:52.736Z,5.40
2024-03-10T15:13:24.124Z,5.10
2024-03-10T15:15:52.929Z,4.70
2024-03-10T15:18:21.040Z,4.90
2024-03-10T15:20:49.088Z,4.80
2024-03-10T15:23:20.233Z,4.40
2024-03-10T15:25:50.466Z,4.80
2024-03-10T15:28:21.672Z,4.90
2024-03-10T15:30:49.646Z,5.20
2024-03-10T15:33:18.195Z,5.30
2024-03-10T15:35:46.359Z,4.70
2024-03-10T15:38:15.186Z,4.20
2024-03-10T15:40:44.314Z,4.90
2024-03-10T15:43:13.797Z,4.50
2024-03-10T15:45:43.595Z,3.80
2024-03-10T15:48:12.707Z,5.00
2024-03-10T15:50:41.238Z,4.50
2024-03-10T15:53:11.752Z,4.70
2024-03-10T15:55:40.398Z,4.50
2024-03-10T15:58:09.186Z,4.20
2024-03-10T16:00:38.470Z,4.80
2024-03-10T16:03:14.546Z,4.50
2024-03-10T16:05:50.364Z,4.80
2024-03-10T16:10:50.290Z,4.70
2024-03-10T16:13:37.839Z,4.70
2024-03-10T16:16:06.960Z,4.60
2024-03-10T16:18:38.398Z,4.40
2024-03-10T16:21:11.423Z,4.40
2024-03-10T16:23:39.740Z,4.10
2024-03-10T16:26:08.029Z,4.40
2024-03-10T16:28:36.019Z,4.70
2024-03-10T16:31:04.115Z,4.90
2024-03-10T16:33:31.971Z,3.60
2024-03-10T16:35:59.739Z,4.30
2024-03-10T16:38:27.529Z,3.80
2024-03-10T16:40:56.535Z,4.70
2024-03-10T16:43:25.052Z,4.70
2024-03-10T16:45:53.217Z,4.90
2024-03-10T16:48:21.207Z,4.30
2024-03-10T16:50:50.886Z,5.00
2024-03-10T16:53:18.805Z,4.80
2024-03-10T16:55:49.076Z,5.10
2024-03-10T16:58:20.491Z,4.30
2024-03-10T17:00:48.512Z,4.90
2024-03-10T17:03:16.886Z,4.90
2024-03-10T17:05:45.168Z,5.00
2024-03-10T17:08:14.882Z,4.20
2024-03-10T17:10:45.389Z,4.90
2024-03-10T17:13:15.048Z,4.90
2024-03-10T17:15:43.625Z,4.60
2024-03-10T17:18:14.348Z,5.40
2024-03-10T17:20:42.898Z,4.80
2024-03-10T17:23:13.931Z,5.00
2024-03-10T17:25:41.843Z,4.90
2024-03-10T17:28:09.786Z,5.10
2024-03-10T17:30:37.607Z,4.80
2024-03-10T17:33:05.968Z,5.00
2024-03-10T17:35:35.428Z,4.60
2024-03-10T17:38:05.513Z,4.70
2024-03-10T17:40:33.662Z,5.10
2024-03-10T17:43:01.635Z,5.80
2024-03-10T17:45:29.874Z,4.80
2024-03-10T17:48:00.547Z,4.70
2024-03-10T17:50:28.526Z,5.00
2024-03-10T17:52:56.718Z,5.20
2024-03-10T17:55:24.467Z,4.50
2024-03-10T17:57:52.719Z,5.20
2024-03-10T18:00:23.868Z,4.70
2024-03-10T18:02:52.005Z,5.10
2024-03-10T18:05:20.131Z,5.60
2024-03-10T18:07:52.323Z,4.80
2024-03-10T18:10:22.490Z,5.90
2024-03-10T18:12:54.854Z,6.30
2024-03-10T18:15:25.312Z,5.30
2024-03-10T18:17:54.291Z,5.70
2024-03-10T18:20:26.124Z,6.20
2024-03-10T18:22:54.243Z,4.60
2024-03-10T18:25:22.875Z,6.00
2024-03-10T18:27:51.938Z,4.50
2024-03-10T18:30:19.773Z,5.00
2024-03-10T18:32:48.772Z,5.50
2024-03-10T18:35:17.489Z,5.50
2024-03-10T18:37:46.074Z,5.70
2024-03-10T18:40:15.480Z,5.00
2024-03-10T18:45:14.212Z,5.40
2024-03-10T18:47:42.463Z,5.80
2024-03-10T18:50:12.849Z,5.70
2024-03-10T18:52:42.482Z,6.70
2024-03-10T18:55:11.540Z,7.30
2024-03-10T18:57:39.719Z,6.00
2024-03-10T19:00:08.482Z,5.30
2024-03-10T19:02:36.891Z,6.40
2024-03-10T19:05:05.082Z,7.10
2024-03-10T19:07:32.986Z,6.10
2024-03-10T19:10:00.743Z,5.60
2024-03-10T19:12:28.565Z,6.50
2024-03-10T19:14:56.482Z,5.50
2024-03-10T19:17:26.234Z,6.10
2024-03-10T19:19:57.360Z,4.00
2024-03-10T19:22:25.234Z,5.30
2024-03-10T19:24:53.088Z,4.90
2024-03-10T19:27:20.905Z,5.90
2024-03-10T19:29:48.760Z,5.60
2024-03-10T19:32:16.553Z,6.20
2024-03-10T19:34:44.286Z,6.10
2024-03-10T19:37:11.996Z,6.90
2024-03-10T19:39:39.695Z,5.20
2024-03-10T19:42:07.671Z,6.80
2024-03-10T19:44:36.411Z,6.70
2024-03-10T19:47:06.343Z,6.30
2024-03-10T19:49:37.331Z,6.70
2024-03-10T19:52:05.449Z,6.10
2024-03-10T19:54:34.064Z,5.80
2024-03-10T19:57:02.024Z,4.90
2024-03-10T19:59:30.430Z,4.70
2024-03-10T20:02:00.674Z,5.80
2024-03-10T20:04:30.347Z,5.70
2024-03-10T20:06:58.337Z,5.00
2024-03-10T20:09:26.182Z,7.40
2024-03-10T20:11:55.051Z,6.80
2024-03-10T20:14:23.011Z,5.60
2024-03-10T20:16:50.938Z,5.40
2024-03-10T20:19:18.813Z,6.10
2024-03-10T20:21:46.549Z,5.60
2024-03-10T20:24:16.048Z,4.70
2024-03-10T20:26:44.061Z,6.30
2024-03-10T20:29:11.833Z,5.60
2024-03-10T20:31:39.855Z,5.30
2024-03-10T20:34:07.737Z,4.90
2024-03-10T20:36:37.311Z,5.60
2024-03-10T20:39:05.717Z,5.60
2024-03-10T20:41:33.461Z,5.50
2024-03-10T20:44:01.421Z,5.30
2024-03-10T20:46:34.628Z,5.70
2024-03-10T20:49:06.905Z,5.80
2024-03-10T20:51:35.146Z,5.20
2024-03-10T20:54:04.394Z,5.00
2024-03-10T20:56:32.175Z,5.40
2024-03-10T20:59:00.203Z,5.90
2024-03-10T21:01:28.475Z,5.30
2024-03-10T21:03:56.455Z,4.60
2024-03-10T21:06:24.549Z,5.10
2024-03-10T21:08:52.314Z,4.90
2024-03-10T21:11:20.343Z,5.40
2024-03-10T21:13:49.648Z,5.70
2024-03-10T21:16:17.382Z,6.30
2024-03-10T21:18:45.379Z,5.50
2024-03-10T21:21:13.190Z,6.30
2024-03-10T21:23:41.280Z,5.70
2024-03-10T21:26:09.597Z,6.00
2024-03-10T21:28:37.962Z,6.40
2024-03-10T21:31:05.720Z,4.90
2024-03-10T21:33:33.732Z,6.30
2024-03-10T21:36:03.511Z,4.90
2024-03-10T21:41:03.977Z,5.50
2024-03-10T21:43:31.798Z,6.70
2024-03-10T21:46:04.192Z,6.70
2024-03-10T21:48:32.022Z,4.90
2024-03-10T21:51:00.336Z,5.60
2024-03-10T21:53:28.126Z,6.60
2024-03-10T21:55:55.942Z,6.00
2024-03-10T21:58:23.855Z,5.20
2024-03-10T22:00:51.671Z,4.40
2024-03-10T22:03:22.544Z,5.80
2024-03-10T22:05:51.777Z,6.10
2024-03-10T22:08:19.790Z,6.80
2024-03-10T22:10:47.503Z,5.00
2024-03-10T22:13:15.358Z,5.50
2024-03-10T22:15:43.349Z,3.80
2024-03-10T22:18:11.575Z,5.50
2024-03-10T22:20:39.625Z,5.00
2024-03-10T22:23:07.699Z,4.90
2024-03-10T22:25:35.629Z,5.20
2024-03-10T22:28:04.030Z,4.90
2024-03-10T22:30:33.037Z,5.10
2024-03-10T22:33:01.394Z,5.00
2024-03-10T22:35:29.483Z,4.00
2024-03-10T22:37:59.047Z,4.20
2024-03-10T22:40:29.140Z,4.80
2024-03-10T22:42:59.355Z,5.30
2024-03-10T22:45:31.420Z,4.70
2024-03-10T22:48:02.417Z,4.10
2024-03-10T22:50:31.405Z,4.40
2024-03-10T22:53:04.021Z,5.00
2024-03-10T22:55:33.458Z,4.70
2024-03-10T22:58:02.460Z,4.40
2024-03-10T23:00:37.214Z,4.80
2024-03-10T23:03:08.448Z,4.40
2024-03-10T23:05:37.306Z,4.80
2024-03-10T23:08:06.908Z,3.80
2024-03-10T23:10:43.351Z,5.00
2024-03-10T23:13:11.720Z,5.30
2024-03-10T23:15:40.855Z,4.60
2024-03-10T23:18:09.164Z,4.70
2024-03-10T23:20:37.338Z,5.00
2024-03-10T23:23:05.706Z,4.90
2024-03-10T23:25:33.600Z,4.40
2024-03-10T23:28:01.431Z,4.40
2024-03-10T23:30:29.283Z,5.30
2024-03-10T23:32:57.527Z,3.90
2024-03-10T23:35:26.016Z,4.60
2024-03-10T23:37:54.865Z,4.90
2024-03-10T23:40:24.739Z,3.80
2024-03-10T23:42:53.684Z,3.70
2024-03-10T23:45:22.004Z,5.30
2024-03-10T23:47:52.145Z,4.70
2024-03-10T23:50:22.053Z,4.40
2024-03-10T23:52:54.068Z,3.40
2024-03-10T23:55:34.858Z,4.40
2024-03-10T23:58:02.609Z,3.90
